createdAt,value
2017-02-28T00:00:37.390Z,0
2017-02-28T00:01:37.730Z,0
2017-02-28T00:02:38.109Z,0
2017-02-28T00:03:37.698Z,0
2017-02-28T00:04:38.062Z,0
2017-02-28T00:05:38.034Z,0
2017-02-28T00:06:38.054Z,0
2017-02-28T00:07:37.627Z,0
2017-02-28T00:08:37.991Z,0
2017-02-28T00:09:37.979Z,0
2017-02-28T00:10:37.938Z,0
2017-02-28T00:11:37.918Z,0
2017-02-28T00:12:37.934Z,0
2017-02-28T00:13:37.874Z,0
2017-02-28T00:14:37.891Z,0
2017-02-28T00:15:37.836Z,0
2017-02-28T00:16:37.419Z,0
2017-02-28T00:17:37.784Z,0
2017-02-28T00:18:37.783Z,0
2017-02-28T00:19:37.351Z,0
2017-02-28T00:20:37.780Z,0
2017-02-28T00:21:37.710Z,0
2017-02-28T00:22:37.688Z,0
2017-02-28T00:23:37.666Z,0
2017-02-28T00:24:37.678Z,0
2017-02-28T00:25:37.627Z,0
2017-02-28T00:26:37.596Z,0
2017-02-28T00:27:37.607Z,0
2017-02-28T00:28:37.602Z,0
2017-02-28T00:29:37.537Z,0
2017-02-28T00:30:37.505Z,0
2017-02-28T00:31:37.136Z,0
2017-02-28T00:32:37.500Z,0
2017-02-28T00:33:37.453Z,0
2017-02-28T00:34:37.474Z,0
2017-02-28T00:35:37.462Z,0
2017-02-28T00:36:37.474Z,0
2017-02-28T00:37:37.384Z,0
2017-02-28T00:38:36.947Z,0
2017-02-28T00:39:37.361Z,0
2017-02-28T00:40:37.357Z,0
2017-02-28T00:41:37.303Z,0
2017-02-28T00:42:37.242Z,0
2017-02-28T00:43:37.268Z,0
2017-02-28T00:44:37.252Z,0
2017-02-28T00:45:37.234Z,0
2017-02-28T00:46:37.225Z,0
2017-02-28T00:47:37.179Z,0
2017-02-28T00:48:37.148Z,0
2017-02-28T00:49:37.137Z,0
2017-02-28T00:50:37.128Z,0
2017-02-28T00:51:37.078Z,0
2017-02-28T00:52:37.050Z,0
2017-02-28T00:53:37.053Z,0
2017-02-28T00:54:37.014Z,0
2017-02-28T00:55:36.996Z,0
2017-02-28T00:56:37.003Z,0
2017-02-28T00:57:36.962Z,0
2017-02-28T00:58:36.949Z,0
2017-02-28T00:59:36.889Z,0
2017-02-28T01:00:36.885Z,0
2017-02-28T01:01:36.901Z,0
2017-02-28T01:02:36.867Z,0
2017-02-28T01:03:36.835Z,0
2017-02-28T01:04:36.872Z,0
2017-02-28T01:05:36.026Z,0
2017-02-28T01:06:36.416Z,0
2017-02-28T01:07:36.737Z,0
2017-02-28T01:08:36.759Z,0
2017-02-28T01:09:36.723Z,0
2017-02-28T01:10:36.341Z,0
2017-02-28T01:11:36.663Z,0
2017-02-28T01:12:36.650Z,0
2017-02-28T01:13:36.275Z,0
2017-02-28T01:14:36.242Z,0
2017-02-28T01:15:36.599Z,0
2017-02-28T01:16:36.571Z,0
2017-02-28T01:17:36.547Z,0
2017-02-28T01:18:36.128Z,0
2017-02-28T01:19:36.510Z,0
2017-02-28T01:20:36.495Z,0
2017-02-28T01:21:36.480Z,0
2017-02-28T01:22:36.441Z,0
2017-02-28T01:23:36.425Z,0
2017-02-28T01:24:36.060Z,0
2017-02-28T01:25:36.022Z,0
2017-02-28T01:26:36.365Z,0
2017-02-28T01:27:36.380Z,0
2017-02-28T01:28:35.916Z,0
2017-02-28T01:29:36.311Z,0
2017-02-28T01:30:36.280Z,0
2017-02-28T01:31:36.259Z,0
2017-02-28T01:32:36.272Z,0
2017-02-28T01:33:36.220Z,0
2017-02-28T01:34:36.205Z,0
2017-02-28T01:35:36.172Z,0
2017-02-28T01:36:36.145Z,0
2017-02-28T01:37:35.762Z,0
2017-02-28T01:38:35.716Z,0
2017-02-28T01:39:36.105Z,0
2017-02-28T01:40:36.053Z,0
2017-02-28T01:41:36.056Z,0
2017-02-28T01:42:36.091Z,0
2017-02-28T01:43:35.621Z,0
2017-02-28T01:44:35.618Z,0
2017-02-28T01:45:35.199Z,0
2017-02-28T01:46:35.958Z,0
2017-02-28T01:47:35.579Z,0
2017-02-28T01:48:35.537Z,0
2017-02-28T01:49:35.529Z,0
2017-02-28T01:50:35.873Z,0
2017-02-28T01:51:35.476Z,0
2017-02-28T01:52:35.476Z,0
2017-02-28T01:53:35.816Z,0
2017-02-28T01:54:35.837Z,0
2017-02-28T01:55:35.777Z,0
2017-02-28T01:56:35.752Z,0
2017-02-28T01:57:35.705Z,0
2017-02-28T01:58:35.743Z,0
2017-02-28T01:59:35.328Z,0
2017-02-28T02:00:35.654Z,0
2017-02-28T02:01:35.674Z,0
2017-02-28T02:02:35.654Z,0
2017-02-28T02:03:35.219Z,0
2017-02-28T02:04:35.190Z,0
2017-02-28T02:05:35.586Z,0
2017-02-28T02:06:35.554Z,0
2017-02-28T02:07:35.131Z,0
2017-02-28T02:08:35.329Z,0
2017-02-28T02:09:35.095Z,0
2017-02-28T02:10:35.068Z,0
2017-02-28T02:11:35.420Z,0
2017-02-28T02:12:35.655Z,0
2017-02-28T02:13:35.390Z,0
2017-02-28T02:14:34.599Z,0
2017-02-28T02:15:35.350Z,0
2017-02-28T02:16:34.956Z,0
2017-02-28T02:17:34.922Z,0
2017-02-28T02:18:35.306Z,0
2017-02-28T02:19:34.908Z,0
2017-02-28T02:20:34.913Z,0
2017-02-28T02:21:35.204Z,0
2017-02-28T02:22:34.852Z,0
2017-02-28T02:23:35.196Z,0
2017-02-28T02:24:35.149Z,0
2017-02-28T02:25:35.162Z,0
2017-02-28T02:26:35.103Z,0
2017-02-28T02:27:35.109Z,0
2017-02-28T02:28:35.088Z,0
2017-02-28T02:29:35.067Z,0
2017-02-28T02:30:34.666Z,0
2017-02-28T02:31:35.023Z,0
2017-02-28T02:32:34.998Z,0
2017-02-28T02:33:34.801Z,0
2017-02-28T02:34:34.955Z,0
2017-02-28T02:35:34.577Z,0
2017-02-28T02:36:34.527Z,0
2017-02-28T02:37:34.957Z,0
2017-02-28T02:38:34.866Z,0
2017-02-28T02:39:34.514Z,0
2017-02-28T02:40:34.822Z,0
2017-02-28T02:41:34.814Z,0
2017-02-28T02:42:34.058Z,0
2017-02-28T02:43:34.786Z,0
2017-02-28T02:44:34.767Z,0
2017-02-28T02:45:34.193Z,0
2017-02-28T02:46:34.909Z,0
2017-02-28T02:47:34.705Z,0
2017-02-28T02:48:34.733Z,0
2017-02-28T02:49:34.304Z,0
2017-02-28T02:50:34.632Z,0
2017-02-28T02:51:34.832Z,0
2017-02-28T02:52:34.597Z,0
2017-02-28T02:53:34.559Z,0
2017-02-28T02:54:34.193Z,0
2017-02-28T02:55:34.144Z,0
2017-02-28T02:56:34.149Z,0
2017-02-28T02:57:34.125Z,0
2017-02-28T02:58:34.090Z,0
2017-02-28T02:59:34.092Z,0
2017-02-28T03:00:34.428Z,0
2017-02-28T03:01:34.424Z,0
2017-02-28T03:02:34.037Z,0
2017-02-28T03:03:34.413Z,0
2017-02-28T03:04:33.956Z,0
2017-02-28T03:05:34.346Z,0
2017-02-28T03:06:34.317Z,0
2017-02-28T03:07:34.339Z,0
2017-02-28T03:08:47.937Z,0
2017-02-28T03:09:34.245Z,0
2017-02-28T03:10:34.226Z,0
2017-02-28T03:11:34.231Z,0
2017-02-28T03:12:33.420Z,0
2017-02-28T03:13:34.165Z,0
2017-02-28T03:14:33.570Z,0
2017-02-28T03:15:33.751Z,0
2017-02-28T03:16:34.121Z,0
2017-02-28T03:17:34.086Z,0
2017-02-28T03:18:34.060Z,0
2017-02-28T03:19:33.866Z,0
2017-02-28T03:20:34.032Z,0
2017-02-28T03:21:34.002Z,0
2017-02-28T03:22:33.625Z,0
2017-02-28T03:23:33.962Z,0
2017-02-28T03:24:33.931Z,0
2017-02-28T03:25:33.962Z,0
2017-02-28T03:26:33.503Z,0
2017-02-28T03:27:33.119Z,0
2017-02-28T03:28:33.844Z,0
2017-02-28T03:29:33.860Z,0
2017-02-28T03:30:33.829Z,0
2017-02-28T03:31:33.822Z,0
2017-02-28T03:32:33.800Z,0
2017-02-28T03:33:33.755Z,0
2017-02-28T03:34:33.334Z,0
2017-02-28T03:35:33.348Z,0
2017-02-28T03:36:33.303Z,0
2017-02-28T03:37:33.712Z,0
2017-02-28T03:38:33.658Z,0
2017-02-28T03:39:33.659Z,0
2017-02-28T03:40:33.607Z,0
2017-02-28T03:41:33.590Z,0
2017-02-28T03:42:33.581Z,0
2017-02-28T03:43:33.187Z,0
2017-02-28T03:44:33.528Z,0
2017-02-28T03:45:33.310Z,0
2017-02-28T03:46:33.707Z,0
2017-02-28T03:47:33.272Z,0
2017-02-28T03:48:33.450Z,0
2017-02-28T03:49:32.689Z,0
2017-02-28T03:50:33.412Z,0
2017-02-28T03:51:33.022Z,0
2017-02-28T03:52:32.970Z,0
2017-02-28T03:53:32.601Z,0
2017-02-28T03:54:33.351Z,0
2017-02-28T03:55:32.925Z,0
2017-02-28T03:56:33.299Z,0
2017-02-28T03:57:33.290Z,0
2017-02-28T03:58:33.232Z,0
2017-02-28T03:59:33.229Z,0
2017-02-28T04:00:33.205Z,0
2017-02-28T04:01:33.194Z,0
2017-02-28T04:02:32.786Z,0
2017-02-28T04:03:33.165Z,0
2017-02-28T04:04:33.109Z,0
2017-02-28T04:05:33.100Z,0
2017-02-28T04:06:33.143Z,0
2017-02-28T04:07:33.062Z,0
2017-02-28T04:08:33.085Z,0
2017-02-28T04:09:33.027Z,0
2017-02-28T04:10:32.990Z,0
2017-02-28T04:11:32.616Z,0
2017-02-28T04:12:32.970Z,0
2017-02-28T04:13:32.587Z,0
2017-02-28T04:14:32.925Z,0
2017-02-28T04:15:45.936Z,0
2017-02-28T04:16:32.877Z,0
2017-02-28T04:17:32.892Z,0
2017-02-28T04:18:32.821Z,0
2017-02-28T04:19:32.846Z,0
2017-02-28T04:20:33.007Z,0
2017-02-28T04:21:32.770Z,0
2017-02-28T04:22:32.385Z,0
2017-02-28T04:23:32.355Z,0
2017-02-28T04:24:32.748Z,0
2017-02-28T04:25:46.092Z,0
2017-02-28T04:26:32.298Z,0
2017-02-28T04:27:32.707Z,0
2017-02-28T04:28:32.639Z,0
2017-02-28T04:29:32.603Z,0
2017-02-28T04:30:32.657Z,0
2017-02-28T04:31:32.631Z,0
2017-02-28T04:32:32.175Z,0
2017-02-28T04:33:32.532Z,0
2017-02-28T04:34:32.546Z,0
2017-02-28T04:35:32.514Z,0
2017-02-28T04:36:32.478Z,0
2017-02-28T04:37:32.470Z,0
2017-02-28T04:38:32.446Z,0
2017-02-28T04:39:32.439Z,0
2017-02-28T04:40:32.421Z,0
2017-02-28T04:41:32.379Z,0
2017-02-28T04:42:31.993Z,0
2017-02-28T04:43:32.324Z,0
2017-02-28T04:44:32.299Z,0
2017-02-28T04:45:32.326Z,0
2017-02-28T04:46:32.300Z,0
2017-02-28T04:47:32.450Z,0
2017-02-28T04:48:32.243Z,0
2017-02-28T04:49:32.209Z,0
2017-02-28T04:50:32.228Z,0
2017-02-28T04:51:32.166Z,0
2017-02-28T04:52:31.785Z,0
2017-02-28T04:53:45.515Z,0
2017-02-28T04:54:31.742Z,0
2017-02-28T04:55:31.712Z,0
2017-02-28T04:56:32.066Z,0
2017-02-28T04:57:32.057Z,0
2017-02-28T04:58:32.227Z,0
2017-02-28T04:59:32.035Z,0
2017-02-28T05:00:31.980Z,0
2017-02-28T05:01:31.980Z,0
2017-02-28T05:02:31.968Z,0
2017-02-28T05:03:31.177Z,0
2017-02-28T05:04:31.916Z,0
2017-02-28T05:05:31.947Z,0
2017-02-28T05:06:31.849Z,0
2017-02-28T05:07:31.865Z,0
2017-02-28T05:08:31.427Z,0
2017-02-28T05:09:31.810Z,0
2017-02-28T05:10:31.800Z,0
2017-02-28T05:11:31.381Z,0
2017-02-28T05:12:31.743Z,0
2017-02-28T05:13:30.988Z,0
2017-02-28T05:14:31.689Z,0
2017-02-28T05:15:31.682Z,0
2017-02-28T05:16:31.701Z,0
2017-02-28T05:17:31.626Z,0
2017-02-28T05:18:31.644Z,0
2017-02-28T05:19:30.815Z,0
2017-02-28T05:20:31.597Z,0
2017-02-28T05:21:31.553Z,0
2017-02-28T05:22:31.530Z,0
2017-02-28T05:23:31.509Z,0
2017-02-28T05:24:31.472Z,0
2017-02-28T05:25:31.457Z,0
2017-02-28T05:26:31.636Z,0
2017-02-28T05:27:31.419Z,0
2017-02-28T05:28:31.403Z,0
2017-02-28T05:29:30.993Z,0
2017-02-28T05:30:31.395Z,0
2017-02-28T05:31:31.337Z,0
2017-02-28T05:32:30.565Z,0
2017-02-28T05:33:31.304Z,0
2017-02-28T05:34:31.302Z,0
2017-02-28T05:35:31.258Z,0
2017-02-28T05:36:31.221Z,0
2017-02-28T05:37:31.193Z,0
2017-02-28T05:38:30.803Z,0
2017-02-28T05:39:30.808Z,0
2017-02-28T05:40:31.141Z,0
2017-02-28T05:41:31.176Z,0
2017-02-28T05:42:31.179Z,0
2017-02-28T05:43:31.128Z,0
2017-02-28T05:44:30.680Z,0
2017-02-28T05:45:31.039Z,0
2017-02-28T05:46:31.035Z,0
2017-02-28T05:47:31.004Z,0
2017-02-28T05:48:30.994Z,5
2017-02-28T05:49:31.016Z,5
2017-02-28T05:50:30.601Z,5
2017-02-28T05:51:30.535Z,5
2017-02-28T05:52:30.932Z,5
2017-02-28T05:53:30.530Z,5
2017-02-28T05:54:30.913Z,5
2017-02-28T05:55:30.865Z,10
2017-02-28T05:56:30.463Z,10
2017-02-28T05:57:30.847Z,10
2017-02-28T05:58:30.826Z,10
2017-02-28T05:59:30.776Z,10
2017-02-28T06:00:30.764Z,15
2017-02-28T06:01:30.744Z,15
2017-02-28T06:02:30.730Z,15
2017-02-28T06:03:30.700Z,20
2017-02-28T06:04:30.733Z,20
2017-02-28T06:05:30.665Z,15
2017-02-28T06:06:30.690Z,15
2017-02-28T06:07:30.217Z,15
2017-02-28T06:08:30.230Z,15
2017-02-28T06:09:30.599Z,20
2017-02-28T06:10:30.585Z,25
2017-02-28T06:11:30.560Z,25
2017-02-28T06:12:30.511Z,25
2017-02-28T06:13:30.486Z,25
2017-02-28T06:14:30.102Z,25
2017-02-28T06:15:30.075Z,25
2017-02-28T06:16:30.047Z,30
2017-02-28T06:17:30.399Z,35
2017-02-28T06:18:30.436Z,40
2017-02-28T06:19:30.372Z,40
2017-02-28T06:20:30.377Z,40
2017-02-28T06:21:30.337Z,40
2017-02-28T06:22:29.935Z,40
2017-02-28T06:23:30.270Z,45
2017-02-28T06:24:30.254Z,55
2017-02-28T06:25:30.234Z,60
2017-02-28T06:26:30.235Z,60
2017-02-28T06:27:29.799Z,55
2017-02-28T06:28:30.211Z,50
2017-02-28T06:29:30.154Z,55
2017-02-28T06:30:30.161Z,65
2017-02-28T06:31:30.133Z,75
2017-02-28T06:32:30.105Z,95
2017-02-28T06:33:29.698Z,100
2017-02-28T06:34:30.124Z,105
2017-02-28T06:35:29.678Z,110
2017-02-28T06:36:30.049Z,120
2017-02-28T06:37:30.024Z,105
2017-02-28T06:38:29.981Z,100
2017-02-28T06:39:29.625Z,110
2017-02-28T06:40:29.561Z,120
2017-02-28T06:41:29.919Z,130
2017-02-28T06:42:29.902Z,135
2017-02-28T06:43:29.900Z,130
2017-02-28T06:44:29.470Z,130
2017-02-28T06:45:29.832Z,135
2017-02-28T06:46:29.835Z,140
2017-02-28T06:47:29.792Z,155
2017-02-28T06:48:29.768Z,165
2017-02-28T06:49:29.765Z,175
2017-02-28T06:50:29.367Z,190
2017-02-28T06:51:29.706Z,185
2017-02-28T06:52:29.338Z,185
2017-02-28T06:53:29.693Z,190
2017-02-28T06:54:29.666Z,195
2017-02-28T06:55:29.657Z,185
2017-02-28T06:56:29.628Z,185
2017-02-28T06:57:29.583Z,190
2017-02-28T06:58:29.574Z,205
2017-02-28T06:59:29.536Z,210
2017-02-28T07:00:29.547Z,260
2017-02-28T07:01:29.524Z,270
2017-02-28T07:02:29.103Z,230
2017-02-28T07:03:29.071Z,210
2017-02-28T07:04:29.084Z,220
2017-02-28T07:05:29.424Z,230
2017-02-28T07:06:29.017Z,250
2017-02-28T07:07:29.371Z,250
2017-02-28T07:08:29.383Z,260
2017-02-28T07:09:29.345Z,275
2017-02-28T07:10:28.961Z,280
2017-02-28T07:11:29.316Z,295
2017-02-28T07:12:29.299Z,310
2017-02-28T07:13:29.254Z,325
2017-02-28T07:14:29.263Z,355
2017-02-28T07:15:28.810Z,395
2017-02-28T07:16:29.196Z,420
2017-02-28T07:17:29.197Z,415
2017-02-28T07:18:29.161Z,415
2017-02-28T07:19:29.139Z,440
2017-02-28T07:20:29.132Z,430
2017-02-28T07:21:29.079Z,435
2017-02-28T07:22:29.084Z,470
2017-02-28T07:23:29.043Z,440
2017-02-28T07:24:29.038Z,460
2017-02-28T07:25:29.024Z,470
2017-02-28T07:26:29.039Z,490
2017-02-28T07:27:28.943Z,520
2017-02-28T07:28:28.981Z,525
2017-02-28T07:29:28.928Z,505
2017-02-28T07:30:28.522Z,555
2017-02-28T07:31:28.901Z,515
2017-02-28T07:32:28.893Z,495
2017-02-28T07:33:28.857Z,450
2017-02-28T07:34:28.849Z,500
2017-02-28T07:35:28.405Z,500
2017-02-28T07:36:28.790Z,470
2017-02-28T07:37:28.767Z,480
2017-02-28T07:38:28.780Z,455
2017-02-28T07:39:28.710Z,465
2017-02-28T07:40:28.737Z,485
2017-02-28T07:41:28.713Z,530
2017-02-28T07:42:28.281Z,570
2017-02-28T07:43:28.237Z,590
2017-02-28T07:44:28.622Z,600
2017-02-28T07:45:28.594Z,560
2017-02-28T07:46:28.587Z,490
2017-02-28T07:47:28.568Z,490
2017-02-28T07:48:28.545Z,520
2017-02-28T07:49:28.528Z,545
2017-02-28T07:50:28.084Z,565
2017-02-28T07:51:28.087Z,605
2017-02-28T07:52:28.484Z,560
2017-02-28T07:53:28.430Z,595
2017-02-28T07:54:28.470Z,640
2017-02-28T07:55:28.382Z,575
2017-02-28T07:56:28.404Z,555
2017-02-28T07:57:28.342Z,595
2017-02-28T07:58:27.968Z,715
2017-02-28T07:59:28.313Z,710
2017-02-28T08:00:28.283Z,635
2017-02-28T08:01:28.282Z,600
2017-02-28T08:02:28.265Z,595
2017-02-28T08:03:28.232Z,590
2017-02-28T08:04:28.202Z,550
2017-02-28T08:05:28.226Z,530
2017-02-28T08:06:27.790Z,590
2017-02-28T08:07:27.758Z,635
2017-02-28T08:08:28.148Z,635
2017-02-28T08:09:28.095Z,660
2017-02-28T08:10:28.076Z,680
2017-02-28T08:11:27.331Z,635
2017-02-28T08:12:27.705Z,650
2017-02-28T08:13:28.024Z,675
2017-02-28T08:14:28.018Z,655
2017-02-28T08:15:27.993Z,660
2017-02-28T08:16:27.972Z,635
2017-02-28T08:17:27.570Z,665
2017-02-28T08:18:27.944Z,690
2017-02-28T08:19:27.922Z,675
2017-02-28T08:20:27.518Z,680
2017-02-28T08:21:27.468Z,765
2017-02-28T08:22:27.868Z,815
2017-02-28T08:23:27.498Z,815
2017-02-28T08:24:27.431Z,830
2017-02-28T08:25:27.815Z,785
2017-02-28T08:26:27.379Z,760
2017-02-28T08:27:27.767Z,760
2017-02-28T08:28:27.728Z,770
2017-02-28T08:29:27.308Z,755
2017-02-28T08:30:27.697Z,750
2017-02-28T08:31:27.321Z,815
2017-02-28T08:32:27.671Z,820
2017-02-28T08:33:27.637Z,795
2017-02-28T08:34:27.210Z,785
2017-02-28T08:35:27.216Z,800
2017-02-28T08:36:27.569Z,825
2017-02-28T08:37:27.541Z,810
2017-02-28T08:38:27.510Z,830
2017-02-28T08:39:27.524Z,880
2017-02-28T08:40:27.516Z,905
2017-02-28T08:41:27.096Z,870
2017-02-28T08:42:27.472Z,840
2017-02-28T08:43:27.054Z,835
2017-02-28T08:44:27.402Z,810
2017-02-28T08:45:27.403Z,810
2017-02-28T08:46:27.369Z,765
2017-02-28T08:47:27.337Z,775
2017-02-28T08:48:27.369Z,830
2017-02-28T08:49:27.316Z,760
2017-02-28T08:50:27.275Z,730
2017-02-28T08:51:26.892Z,735
2017-02-28T08:52:27.253Z,685
2017-02-28T08:53:27.245Z,690
2017-02-28T08:54:27.226Z,740
2017-02-28T08:55:27.220Z,750
2017-02-28T08:56:27.181Z,740
2017-02-28T08:57:27.164Z,700
2017-02-28T08:58:27.130Z,735
2017-02-28T08:59:26.339Z,780
2017-02-28T09:00:27.125Z,790
2017-02-28T09:01:27.061Z,795
2017-02-28T09:02:26.687Z,830
2017-02-28T09:03:27.029Z,820
2017-02-28T09:04:27.059Z,790
2017-02-28T09:05:26.614Z,765
2017-02-28T09:06:26.971Z,750
2017-02-28T09:07:26.966Z,740
2017-02-28T09:08:26.567Z,725
2017-02-28T09:09:26.938Z,715
2017-02-28T09:10:26.920Z,675
2017-02-28T09:11:26.902Z,680
2017-02-28T09:12:26.856Z,685
2017-02-28T09:13:26.471Z,705
2017-02-28T09:14:26.451Z,690
2017-02-28T09:15:26.395Z,675
2017-02-28T09:16:26.777Z,680
2017-02-28T09:17:26.007Z,740
2017-02-28T09:18:26.364Z,745
2017-02-28T09:19:26.344Z,705
2017-02-28T09:20:26.701Z,720
2017-02-28T09:21:26.303Z,740
2017-02-28T09:22:26.284Z,730
2017-02-28T09:23:26.256Z,715
2017-02-28T09:24:26.634Z,745
2017-02-28T09:25:26.214Z,695
2017-02-28T09:26:26.580Z,690
2017-02-28T09:27:26.183Z,750
2017-02-28T09:28:25.771Z,745
2017-02-28T09:29:26.541Z,740
2017-02-28T09:30:25.339Z,710
2017-02-28T09:31:26.122Z,685
2017-02-28T09:32:26.075Z,710
2017-02-28T09:33:26.429Z,735
2017-02-28T09:34:26.447Z,745
2017-02-28T09:35:26.047Z,830
2017-02-28T09:36:26.402Z,755
2017-02-28T09:37:26.386Z,720
2017-02-28T09:38:25.977Z,705
2017-02-28T09:39:26.347Z,780
2017-02-28T09:40:26.331Z,775
2017-02-28T09:41:26.306Z,780
2017-02-28T09:42:26.244Z,760
2017-02-28T09:43:26.278Z,685
2017-02-28T09:44:26.208Z,650
2017-02-28T09:45:26.207Z,645
2017-02-28T09:46:25.808Z,695
2017-02-28T09:47:26.196Z,745
2017-02-28T09:48:26.143Z,755
2017-02-28T09:49:26.160Z,745
2017-02-28T09:50:26.103Z,775
2017-02-28T09:51:26.121Z,770
2017-02-28T09:52:26.089Z,760
2017-02-28T09:53:25.657Z,800
2017-02-28T09:54:26.068Z,805
2017-02-28T09:55:26.057Z,785
2017-02-28T09:56:26.011Z,775
2017-02-28T09:57:25.986Z,795
2017-02-28T09:58:25.977Z,800
2017-02-28T09:59:25.935Z,765
2017-02-28T10:00:25.907Z,820
2017-02-28T10:01:25.903Z,800
2017-02-28T10:02:25.871Z,835
2017-02-28T10:03:25.872Z,870
2017-02-28T10:04:25.843Z,790
2017-02-28T10:05:25.810Z,735
2017-02-28T10:06:25.808Z,785
2017-02-28T10:07:25.769Z,830
2017-02-28T10:08:25.770Z,850
2017-02-28T10:09:25.733Z,820
2017-02-28T10:10:25.725Z,835
2017-02-28T10:11:25.325Z,825
2017-02-28T10:12:25.678Z,970
2017-02-28T10:13:25.674Z,975
2017-02-28T10:14:25.270Z,955
2017-02-28T10:15:25.618Z,975
2017-02-28T10:16:25.209Z,930
2017-02-28T10:17:25.604Z,930
2017-02-28T10:18:25.185Z,965
2017-02-28T10:19:25.552Z,1035
2017-02-28T10:20:25.148Z,915
2017-02-28T10:21:25.535Z,925
2017-02-28T10:22:25.520Z,975
2017-02-28T10:23:25.466Z,965
2017-02-28T10:24:25.449Z,930
2017-02-28T10:25:25.037Z,910
2017-02-28T10:26:25.414Z,920
2017-02-28T10:27:24.591Z,880
2017-02-28T10:28:25.365Z,880
2017-02-28T10:29:25.339Z,905
2017-02-28T10:30:25.326Z,925
2017-02-28T10:31:24.930Z,920
2017-02-28T10:32:25.269Z,875
2017-02-28T10:33:24.890Z,835
2017-02-28T10:34:24.878Z,805
2017-02-28T10:35:25.234Z,965
2017-02-28T10:36:25.225Z,1025
2017-02-28T10:37:25.177Z,1020
2017-02-28T10:38:24.805Z,935
2017-02-28T10:39:25.152Z,935
2017-02-28T10:40:25.197Z,940
2017-02-28T10:41:24.729Z,920
2017-02-28T10:42:25.096Z,955
2017-02-28T10:43:25.075Z,960
2017-02-28T10:44:25.108Z,985
2017-02-28T10:45:25.065Z,950
2017-02-28T10:46:25.035Z,930
2017-02-28T10:47:24.632Z,950
2017-02-28T10:48:24.994Z,1015
2017-02-28T10:49:24.976Z,970
2017-02-28T10:50:24.580Z,950
2017-02-28T10:51:24.987Z,990
2017-02-28T10:52:24.899Z,920
2017-02-28T10:53:24.537Z,930
2017-02-28T10:54:24.865Z,1080
2017-02-28T10:55:24.528Z,1120
2017-02-28T10:56:24.444Z,1020
2017-02-28T10:57:24.825Z,1020
2017-02-28T10:58:24.806Z,1040
2017-02-28T10:59:24.812Z,1080
2017-02-28T11:00:24.377Z,1065
2017-02-28T11:01:24.759Z,1030
2017-02-28T11:02:24.395Z,965
2017-02-28T11:03:24.711Z,990
2017-02-28T11:04:24.692Z,995
2017-02-28T11:05:24.700Z,1025
2017-02-28T11:06:24.671Z,1010
2017-02-28T11:07:24.626Z,1045
2017-02-28T11:08:24.247Z,1095
2017-02-28T11:09:24.614Z,1080
2017-02-28T11:10:24.592Z,1095
2017-02-28T11:11:24.564Z,1090
2017-02-28T11:12:24.557Z,945
2017-02-28T11:13:24.524Z,900
2017-02-28T11:14:24.505Z,945
2017-02-28T11:15:24.503Z,950
2017-02-28T11:16:24.461Z,955
2017-02-28T11:17:24.438Z,975
2017-02-28T11:18:24.445Z,1065
2017-02-28T11:19:24.406Z,1070
2017-02-28T11:20:24.451Z,1075
2017-02-28T11:21:24.374Z,1140
2017-02-28T11:22:24.371Z,1090
2017-02-28T11:23:24.341Z,1055
2017-02-28T11:24:24.338Z,1080
2017-02-28T11:25:24.360Z,1150
2017-02-28T11:26:23.154Z,1180
2017-02-28T11:27:24.283Z,1095
2017-02-28T11:28:24.247Z,1065
2017-02-28T11:29:24.255Z,1060
2017-02-28T11:30:24.215Z,1005
2017-02-28T11:31:24.210Z,945
2017-02-28T11:32:24.173Z,925
2017-02-28T11:33:24.175Z,895
2017-02-28T11:34:24.155Z,855
2017-02-28T11:35:24.114Z,955
2017-02-28T11:36:24.121Z,1025
2017-02-28T11:37:24.107Z,930
2017-02-28T11:38:24.079Z,855
2017-02-28T11:39:24.067Z,885
2017-02-28T11:40:24.031Z,895
2017-02-28T11:41:24.068Z,815
2017-02-28T11:42:24.041Z,810
2017-02-28T11:43:24.003Z,865
2017-02-28T11:44:23.956Z,785
2017-02-28T11:45:23.968Z,735
2017-02-28T11:46:23.546Z,790
2017-02-28T11:47:23.539Z,805
2017-02-28T11:48:23.501Z,835
2017-02-28T11:49:23.907Z,860
2017-02-28T11:50:23.867Z,850
2017-02-28T11:51:23.839Z,855
2017-02-28T11:52:23.438Z,865
2017-02-28T11:53:23.791Z,750
2017-02-28T11:54:23.392Z,780
2017-02-28T11:55:23.364Z,775
2017-02-28T11:56:23.747Z,780
2017-02-28T11:57:23.737Z,770
2017-02-28T11:58:23.705Z,750
2017-02-28T11:59:23.702Z,825
2017-02-28T12:00:23.690Z,830
2017-02-28T12:01:22.871Z,810
2017-02-28T12:02:23.623Z,770
2017-02-28T12:03:23.623Z,750
2017-02-28T12:04:23.579Z,800
2017-02-28T12:05:23.591Z,825
2017-02-28T12:06:23.532Z,785
2017-02-28T12:07:23.159Z,725
2017-02-28T12:08:23.540Z,725
2017-02-28T12:09:23.466Z,795
2017-02-28T12:10:23.521Z,810
2017-02-28T12:11:23.465Z,875
2017-02-28T12:12:23.437Z,855
2017-02-28T12:13:23.421Z,815
2017-02-28T12:14:23.421Z,840
2017-02-28T12:15:23.382Z,825
2017-02-28T12:16:23.359Z,780
2017-02-28T12:17:22.973Z,905
2017-02-28T12:18:23.323Z,925
2017-02-28T12:19:23.341Z,860
2017-02-28T12:20:23.306Z,870
2017-02-28T12:21:23.292Z,870
2017-02-28T12:22:23.233Z,885
2017-02-28T12:23:23.240Z,890
2017-02-28T12:24:23.237Z,875
2017-02-28T12:25:23.171Z,805
2017-02-28T12:26:23.169Z,840
2017-02-28T12:27:23.151Z,905
2017-02-28T12:28:23.155Z,875
2017-02-28T12:29:23.137Z,900
2017-02-28T12:30:23.101Z,890
2017-02-28T12:31:22.696Z,985
2017-02-28T12:32:23.047Z,1080
2017-02-28T12:33:22.635Z,1015
2017-02-28T12:34:22.660Z,965
2017-02-28T12:35:22.642Z,990
2017-02-28T12:36:22.990Z,990
2017-02-28T12:37:22.566Z,995
2017-02-28T12:38:22.933Z,995
2017-02-28T12:39:22.944Z,970
2017-02-28T12:40:22.523Z,845
2017-02-28T12:41:22.895Z,760
2017-02-28T12:42:22.849Z,820
2017-02-28T12:43:22.845Z,850
2017-02-28T12:44:22.837Z,690
2017-02-28T12:45:22.795Z,740
2017-02-28T12:46:22.800Z,790
2017-02-28T12:47:21.974Z,780
2017-02-28T12:48:22.743Z,730
2017-02-28T12:49:22.726Z,830
2017-02-28T12:50:22.675Z,765
2017-02-28T12:51:22.692Z,840
2017-02-28T12:52:22.666Z,930
2017-02-28T12:53:22.628Z,845
2017-02-28T12:54:22.260Z,795
2017-02-28T12:55:22.598Z,850
2017-02-28T12:56:22.210Z,830
2017-02-28T12:57:22.576Z,775
2017-02-28T12:58:22.538Z,760
2017-02-28T12:59:22.536Z,760
2017-02-28T13:00:22.524Z,795
2017-02-28T13:01:22.470Z,780
2017-02-28T13:02:22.071Z,810
2017-02-28T13:03:22.436Z,770
2017-02-28T13:04:21.664Z,770
2017-02-28T13:05:22.375Z,760
2017-02-28T13:06:22.365Z,695
2017-02-28T13:07:22.007Z,770
2017-02-28T13:08:21.963Z,750
2017-02-28T13:09:22.295Z,730
2017-02-28T13:10:22.310Z,780
2017-02-28T13:11:22.294Z,765
2017-02-28T13:12:22.275Z,755
2017-02-28T13:13:21.864Z,720
2017-02-28T13:14:22.221Z,715
2017-02-28T13:15:21.828Z,730
2017-02-28T13:16:22.187Z,740
2017-02-28T13:17:22.185Z,710
2017-02-28T13:18:21.738Z,665
2017-02-28T13:19:22.112Z,680
2017-02-28T13:20:22.133Z,665
2017-02-28T13:21:21.674Z,650
2017-02-28T13:22:22.051Z,685
2017-02-28T13:23:22.063Z,705
2017-02-28T13:24:22.023Z,680
2017-02-28T13:25:22.004Z,670
2017-02-28T13:26:21.980Z,680
2017-02-28T13:27:21.565Z,715
2017-02-28T13:28:21.935Z,735
2017-02-28T13:29:21.928Z,750
2017-02-28T13:30:21.539Z,765
2017-02-28T13:31:21.885Z,755
2017-02-28T13:32:21.859Z,740
2017-02-28T13:33:21.847Z,735
2017-02-28T13:34:21.841Z,735
2017-02-28T13:35:21.418Z,730
2017-02-28T13:36:21.788Z,725
2017-02-28T13:37:21.766Z,750
2017-02-28T13:38:21.742Z,755
2017-02-28T13:39:21.756Z,740
2017-02-28T13:40:21.702Z,735
2017-02-28T13:41:21.682Z,745
2017-02-28T13:42:21.667Z,735
2017-02-28T13:43:21.642Z,725
2017-02-28T13:44:21.644Z,705
2017-02-28T13:45:21.610Z,700
2017-02-28T13:46:20.849Z,680
2017-02-28T13:47:21.591Z,660
2017-02-28T13:48:21.546Z,635
2017-02-28T13:49:21.551Z,680
2017-02-28T13:50:21.516Z,710
2017-02-28T13:51:21.473Z,710
2017-02-28T13:52:21.111Z,695
2017-02-28T13:53:21.439Z,685
2017-02-28T13:54:21.462Z,650
2017-02-28T13:55:21.407Z,680
2017-02-28T13:56:21.392Z,700
2017-02-28T13:57:21.374Z,705
2017-02-28T13:58:21.341Z,705
2017-02-28T13:59:20.942Z,670
2017-02-28T14:00:20.916Z,690
2017-02-28T14:01:21.292Z,690
2017-02-28T14:02:20.885Z,675
2017-02-28T14:03:20.883Z,665
2017-02-28T14:04:21.265Z,650
2017-02-28T14:05:21.224Z,640
2017-02-28T14:06:21.182Z,620
2017-02-28T14:07:21.190Z,580
2017-02-28T14:08:20.761Z,570
2017-02-28T14:09:21.156Z,590
2017-02-28T14:10:21.123Z,600